Погода Тосьяна неделю

Черноморский регион, Турция

14 - 20 июня
  • 14июня
    Сегодня
    +15°
    +32°
    Облачно с прояснениями
    ВремяПогодаТемператураВлажностьДавлениеВетер, м/сВероятность осадков
    00:00Ясно и безоблачно+20°C61 %693 мм0.6 м/с2 %
    03:00Ясно и безоблачно+19°C65 %692 мм1.0 м/с2 %
    06:00Ясно и безоблачно+17°C69 %692 мм0.8 м/с2 %
    09:00Ясно и безоблачно+25°C38 %693 мм1.5 м/с2 %
    12:00Небольшая облачность+31°C26 %693 мм2.0 м/с2 %
    15:00Облачно с прояснениями+31°C34 %694 мм3.4 м/с23 %
    18:00Пасмурно, сплошная облачность+28°C52 %693 мм2.1 м/с50 %
    21:00Облачно с прояснениями+24°C67 %691 мм0.5 м/с24 %
  • 15июня
    Суббота
    +11°
    +26°
    Небольшая облачность
    ВремяПогодаТемператураВлажностьДавлениеВетер, м/сВероятность осадков
    00:00Практически безоблачно+19°C76 %689 мм1.1 м/с6 %
    03:00Практически безоблачно+16°C80 %688 мм1.2 м/с9 %
    06:00Ясно и безоблачно+16°C81 %688 мм0.4 м/с13 %
    09:00Ясно и безоблачно+20°C58 %689 мм1.3 м/с8 %
    12:00Облачно с прояснениями+25°C35 %690 мм3.0 м/с14 %
    15:00Небольшая облачность+25°C39 %690 мм3.3 м/с32 %
    18:00Практически безоблачно+24°C48 %690 мм2.6 м/с29 %
    21:00Ясно и безоблачно+20°C69 %691 мм1.5 м/с3 %
  • 16июня
    Воскресенье
    +13°
    +29°
    Небольшая облачность
    ВремяПогодаТемператураВлажностьДавлениеВетер, м/сВероятность осадков
    00:00Ясно и безоблачно+17°C79 %691 мм1.1 м/с2 %
    03:00Ясно и безоблачно+14°C86 %690 мм0.8 м/с2 %
    06:00Ясно и безоблачно+12°C85 %690 мм0.6 м/с2 %
    09:00Ясно и безоблачно+19°C53 %691 мм0.7 м/с3 %
    12:00Практически безоблачно+24°C34 %692 мм1.5 м/с4 %
    15:00Небольшая облачность+29°C25 %691 мм2.0 м/с5 %
    18:00Практически безоблачно+27°C29 %691 мм2.9 м/с3 %
    21:00Ясно и безоблачно+22°C64 %692 мм2.1 м/с2 %
  • 17июня
    Понедельник
    +12°
    +29°
    Практически безоблачно
    ВремяПогодаТемператураВлажностьДавлениеВетер, м/сВероятность осадков
    00:00Ясно и безоблачно+18°C86 %692 мм1.1 м/с2 %
    03:00Ясно и безоблачно+15°C93 %692 мм0.8 м/с2 %
    06:00Ясно и безоблачно+13°C93 %692 мм0.5 м/с2 %
    09:00Ясно и безоблачно+20°C58 %693 мм1.1 м/с2 %
    12:00Практически безоблачно+26°C35 %693 мм0.6 м/с4 %
    15:00Практически безоблачно+29°C31 %693 мм1.9 м/с22 %
    18:00Ясно и безоблачно+27°C34 %693 мм2.3 м/с23 %
    21:00Ясно и безоблачно+22°C56 %694 мм1.5 м/с2 %
  • 18июня
    Вторник
    +13°
    +31°
    Облачно с прояснениями
    ВремяПогодаТемператураВлажностьДавлениеВетер, м/сВероятность осадков
    00:00Ясно и безоблачно+18°C81 %694 мм1.0 м/с2 %
    03:00Ясно и безоблачно+16°C86 %693 мм0.6 м/с2 %
    06:00Ясно и безоблачно+14°C87 %693 мм0.3 м/с2 %
    09:00Ясно и безоблачно+21°C60 %695 мм1.5 м/с2 %
    12:00Ясно и безоблачно+26°C35 %695 мм1.5 м/с3 %
    15:00Облачно с прояснениями+30°C24 %694 мм1.5 м/с6 %
    18:00Практически безоблачно+31°C25 %693 мм2.9 м/с7 %
    21:00Ясно и безоблачно+23°C56 %694 мм1.6 м/с2 %
Мы используем cookies
Соглашаюсь